Houn Maru — JG5489 — position and weather

sailwx.info

Track history (hours):
 
Tides and Currents Weather Stations Pressure Air Temp Water Temp Dewpoint Dewpoint Depression Visibility Wind Speed Wind Dir Waves Ship Positions

Houn Maru

Last reported at 2015-Feb-01 23:31 UTC. Time now 2015-Feb-02 00:15 UTC.
Position N 34°23' E 135°13'.

Length 91 m; draft 5.9 m.

Type: Tanker. MMSI: 431101172.

Date/timePositionNaut miles runAvg speedWind from/ knotsBaromVisibWave heightAir tempDewpointWater temp
2015-Feb-01 23:31N 34°23' E 135°13'0 0.0
2015-Feb-01 22:31N 34°23' E 135°13'0 0.1
2015-Feb-01 21:28N 34°23' E 135°12'0 0.0
2015-Feb-01 20:22N 34°23' E 135°12'0 0.0
2015-Feb-01 19:28N 34°23' E 135°12'0 0.0
2015-Feb-01 18:22N 34°23' E 135°12'0 0.0
2015-Feb-01 17:28N 34°23' E 135°12'0 0.0
2015-Feb-01 16:22N 34°23' E 135°12'0 0.0
2015-Feb-01 15:28N 34°23' E 135°12'0 0.0
2015-Feb-01 14:28N 34°23' E 135°12'1 0.7
2015-Feb-01 13:33N 34°24' E 135°12'1111.3
2015-Feb-01 12:33N 34°33' E 135°05'10 0.3
2015-Jan-31 02:13N 34°35' E 134°52'810.9
2015-Jan-31 01:30N 34°37' E 135°01'1111.6
2015-Jan-31 00:33N 34°36' E 135°14'1010.4
2015-Jan-30 23:33N 34°35' E 135°27'  
2015-Jan-28 07:16N 34°35' E 135°27'4 6.2
2015-Jan-28 06:33N 34°36' E 135°22'1111.0
2015-Jan-28 05:33N 34°28' E 135°13'3 0.5
2015-Jan-28 00:14N 34°25' E 135°14'2 2.8
2015-Jan-27 23:26N 34°23' E 135°12'0 0.0
2015-Jan-27 22:26N 34°23' E 135°12'0 0.0
2015-Jan-27 20:20N 34°23' E 135°12'0 0.0
2015-Jan-27 17:20N 34°23' E 135°12'0 0.0
2015-Jan-27 16:32N 34°23' E 135°12'3 1.4
2015-Jan-27 14:33N 34°25' E 135°10'1212.0
2015-Jan-27 13:33N 34°36' E 135°03'4 0.1
2015-Jan-26 08:30N 34°37' E 134°58'9 9.7
2015-Jan-26 07:33N 34°31' E 135°07'9 8.4
2015-Jan-26 06:30N 34°25' E 135°14'0 0.1
2015-Jan-26 01:26N 34°25' E 135°14'2 1.9
2015-Jan-26 00:31N 34°23' E 135°13'0 0.0
2015-Jan-25 23:31N 34°23' E 135°13'0 0.0
2015-Jan-25 22:31N 34°23' E 135°13'0 0.0
2015-Jan-25 21:13N 34°23' E 135°13'0 0.0
2015-Jan-25 20:19N 34°23' E 135°13'0 0.0
2015-Jan-25 19:31N 34°23' E 135°13'0 0.0
2015-Jan-25 18:25N 34°23' E 135°13'0 0.3
2015-Jan-25 17:34N 34°24' E 135°12'1110.6
2015-Jan-25 16:33N 34°32' E 135°05'9 7.3
2015-Jan-25 15:16N 34°35' E 134°54'5 0.1
2015-Jan-24 01:08N 34°34' E 134°49'915.5
2015-Jan-24 00:32N 34°38' E 134°59'1313.0
2015-Jan-23 23:33N 34°34' E 135°14'5 4.4
2015-Jan-23 22:24N 34°31' E 135°19'0 0.0
2015-Jan-23 21:24N 34°31' E 135°19'0 0.0
2015-Jan-23 20:30N 34°31' E 135°19'0 0.0
2015-Jan-23 19:18N 34°31' E 135°19'0 0.0
2015-Jan-23 18:18N 34°31' E 135°19'0 0.0
2015-Jan-23 17:30N 34°31' E 135°19'0 0.0
2015-Jan-23 16:30N 34°31' E 135°19'0 0.0
2015-Jan-23 15:30N 34°31' E 135°19'0 0.0
2015-Jan-23 14:24N 34°31' E 135°19'0 0.0
2015-Jan-23 13:30N 34°31' E 135°19'0 0.0
2015-Jan-23 12:24N 34°31' E 135°19'0 0.0
2015-Jan-23 11:30N 34°31' E 135°19'0 0.0
2015-Jan-23 10:30N 34°31' E 135°19'0 0.0
2015-Jan-23 09:12N 34°31' E 135°19'0 0.0
2015-Jan-23 08:33N 34°31' E 135°19'0 0.0
2015-Jan-23 07:33N 34°31' E 135°19'0 0.1
2015-Jan-23 06:23N 34°31' E 135°19'8 9.4
2015-Jan-23 05:33N 34°26' E 135°11'3 2.8
2015-Jan-23 04:33N 34°25' E 135°14'0 0.0
2015-Jan-23 00:13N 34°25' E 135°14'2 3.1
2015-Jan-22 23:32N 34°23' E 135°13'  
Track history (hours):
 
Tides and Currents Weather Stations Pressure Air Temp Water Temp Dewpoint Dewpoint Depression Visibility Wind Speed Wind Dir Waves Ship Positions

Houn Maru

Last reported at 2015-Feb-01 23:31 UTC. Time now 2015-Feb-02 00:15 UTC.
Position N 34°23' E 135°13'.

Length 91 m; draft 5.9 m.

Type: Tanker. MMSI: 431101172.

Date/timePositionNaut miles runAvg speedWind from/ knotsBaromVisibWave heightAir tempDewpointWater temp
2015-Feb-01 23:31N 34°23' E 135°13'0 0.0
2015-Feb-01 22:31N 34°23' E 135°13'0 0.1
2015-Feb-01 21:28N 34°23' E 135°12'0 0.0
2015-Feb-01 20:22N 34°23' E 135°12'0 0.0
2015-Feb-01 19:28N 34°23' E 135°12'0 0.0
2015-Feb-01 18:22N 34°23' E 135°12'0 0.0
2015-Feb-01 17:28N 34°23' E 135°12'0 0.0
2015-Feb-01 16:22N 34°23' E 135°12'0 0.0
2015-Feb-01 15:28N 34°23' E 135°12'0 0.0
2015-Feb-01 14:28N 34°23' E 135°12'1 0.7
2015-Feb-01 13:33N 34°24' E 135°12'1111.3
2015-Feb-01 12:33N 34°33' E 135°05'10 0.3
2015-Jan-31 02:13N 34°35' E 134°52'810.9
2015-Jan-31 01:30N 34°37' E 135°01'1111.6
2015-Jan-31 00:33N 34°36' E 135°14'1010.4
2015-Jan-30 23:33N 34°35' E 135°27'  
2015-Jan-28 07:16N 34°35' E 135°27'4 6.2
2015-Jan-28 06:33N 34°36' E 135°22'1111.0
2015-Jan-28 05:33N 34°28' E 135°13'3 0.5
2015-Jan-28 00:14N 34°25' E 135°14'2 2.8
2015-Jan-27 23:26N 34°23' E 135°12'0 0.0
2015-Jan-27 22:26N 34°23' E 135°12'0 0.0
2015-Jan-27 20:20N 34°23' E 135°12'0 0.0
2015-Jan-27 17:20N 34°23' E 135°12'0 0.0
2015-Jan-27 16:32N 34°23' E 135°12'3 1.4
2015-Jan-27 14:33N 34°25' E 135°10'1212.0
2015-Jan-27 13:33N 34°36' E 135°03'4 0.1
2015-Jan-26 08:30N 34°37' E 134°58'9 9.7
2015-Jan-26 07:33N 34°31' E 135°07'9 8.4
2015-Jan-26 06:30N 34°25' E 135°14'0 0.1
2015-Jan-26 01:26N 34°25' E 135°14'2 1.9
2015-Jan-26 00:31N 34°23' E 135°13'0 0.0
2015-Jan-25 23:31N 34°23' E 135°13'0 0.0
2015-Jan-25 22:31N 34°23' E 135°13'0 0.0
2015-Jan-25 21:13N 34°23' E 135°13'0 0.0
2015-Jan-25 20:19N 34°23' E 135°13'0 0.0
2015-Jan-25 19:31N 34°23' E 135°13'0 0.0
2015-Jan-25 18:25N 34°23' E 135°13'0 0.3
2015-Jan-25 17:34N 34°24' E 135°12'1110.6
2015-Jan-25 16:33N 34°32' E 135°05'9 7.3
2015-Jan-25 15:16N 34°35' E 134°54'5 0.1
2015-Jan-24 01:08N 34°34' E 134°49'915.5
2015-Jan-24 00:32N 34°38' E 134°59'1313.0
2015-Jan-23 23:33N 34°34' E 135°14'5 4.4
2015-Jan-23 22:24N 34°31' E 135°19'0 0.0
2015-Jan-23 21:24N 34°31' E 135°19'0 0.0
2015-Jan-23 20:30N 34°31' E 135°19'0 0.0
2015-Jan-23 19:18N 34°31' E 135°19'0 0.0
2015-Jan-23 18:18N 34°31' E 135°19'0 0.0
2015-Jan-23 17:30N 34°31' E 135°19'0 0.0
2015-Jan-23 16:30N 34°31' E 135°19'0 0.0
2015-Jan-23 15:30N 34°31' E 135°19'0 0.0
2015-Jan-23 14:24N 34°31' E 135°19'0 0.0
2015-Jan-23 13:30N 34°31' E 135°19'0 0.0
2015-Jan-23 12:24N 34°31' E 135°19'0 0.0
2015-Jan-23 11:30N 34°31' E 135°19'0 0.0
2015-Jan-23 10:30N 34°31' E 135°19'0 0.0
2015-Jan-23 09:12N 34°31' E 135°19'0 0.0
2015-Jan-23 08:33N 34°31' E 135°19'0 0.0
2015-Jan-23 07:33N 34°31' E 135°19'0 0.1
2015-Jan-23 06:23N 34°31' E 135°19'8 9.4
2015-Jan-23 05:33N 34°26' E 135°11'3 2.8
2015-Jan-23 04:33N 34°25' E 135°14'0 0.0
2015-Jan-23 00:13N 34°25' E 135°14'2 3.1
2015-Jan-22 23:32N 34°23' E 135°13'  

Dump ship's entire track history